Terminal Aerodrome Forecast
Issued by NWS

Home | Current Version | Previous Version | Text Only | Print | Product List | Glossary On
Versions: 1 2 3 4 5 6 7 8 9 10 11 12 13
000
FTUS46 KLOX 172300
TAFPRB
TAF
KPRB 172335Z 1800/1824 20012KT P6SM SKC
     FM180300 22008KT P6SM SKC
     FM180500 27005KT P6SM SKC
     FM181200 VRB03KT P6SM OVC008
     FM181400 VRB03KT P6SM OVC012
     FM181700 23004KT P6SM BKN016
     FM181900 22006KT P6SM SCT020
     FM182200 20012KT P6SM SCT250=

USA.gov is the U.S. government's official web portal to all federal, state and local government web resources and services.